sensor_id;sensor_type;location;lat;lon;timestamp;P1;durP1;ratioP1;P2;durP2;ratioP2
38972;SDS011;25333;50.762;4.470;2024-01-15T00:01:32;30.52;;;17.17;;
38972;SDS011;25333;50.762;4.470;2024-01-15T00:04:27;27.08;;;18.23;;
38972;SDS011;25333;50.762;4.470;2024-01-15T00:07:19;28.48;;;17.52;;
38972;SDS011;25333;50.762;4.470;2024-01-15T00:09:49;28.70;;;17.13;;
38972;SDS011;25333;50.762;4.470;2024-01-15T00:12:17;27.98;;;16.23;;
38972;SDS011;25333;50.762;4.470;2024-01-15T00:14:53;27.63;;;16.02;;
38972;SDS011;25333;50.762;4.470;2024-01-15T00:17:23;21.25;;;14.65;;
38972;SDS011;25333;50.762;4.470;2024-01-15T00:20:11;30.75;;;16.63;;
38972;SDS011;25333;50.762;4.470;2024-01-15T00:22:37;22.33;;;14.97;;
38972;SDS011;25333;50.762;4.470;2024-01-15T00:25:09;28.73;;;17.27;;
38972;SDS011;25333;50.762;4.470;2024-01-15T00:28:27;26.30;;;15.50;;
38972;SDS011;25333;50.762;4.470;2024-01-15T00:31:04;22.15;;;14.48;;
38972;SDS011;25333;50.762;4.470;2024-01-15T00:33:45;22.50;;;13.73;;
38972;SDS011;25333;50.762;4.470;2024-01-15T00:36:15;25.23;;;13.93;;
38972;SDS011;25333;50.762;4.470;2024-01-15T00:38:48;23.50;;;13.63;;
38972;SDS011;25333;50.762;4.470;2024-01-15T00:41:42;23.25;;;14.10;;
38972;SDS011;25333;50.762;4.470;2024-01-15T00:44:54;22.50;;;12.18;;
38972;SDS011;25333;50.762;4.470;2024-01-15T00:47:53;20.58;;;12.43;;
38972;SDS011;25333;50.762;4.470;2024-01-15T00:50:56;18.98;;;11.93;;
38972;SDS011;25333;50.762;4.470;2024-01-15T00:53:32;19.58;;;11.15;;
38972;SDS011;25333;50.762;4.470;2024-01-15T00:56:33;20.35;;;11.63;;
38972;SDS011;25333;50.762;4.470;2024-01-15T00:59:16;19.98;;;12.65;;
38972;SDS011;25333;50.762;4.470;2024-01-15T01:01:51;20.20;;;12.32;;
38972;SDS011;25333;50.762;4.470;2024-01-15T01:04:40;18.38;;;12.00;;
38972;SDS011;25333;50.762;4.470;2024-01-15T01:07:13;19.35;;;11.52;;
38972;SDS011;25333;50.762;4.470;2024-01-15T01:09:42;17.13;;;10.60;;
38972;SDS011;25333;50.762;4.470;2024-01-15T01:12:31;19.67;;;12.50;;
38972;SDS011;25333;50.762;4.470;2024-01-15T01:15:01;21.23;;;10.45;;
38972;SDS011;25333;50.762;4.470;2024-01-15T01:17:32;20.75;;;12.68;;
38972;SDS011;25333;50.762;4.470;2024-01-15T01:20:04;17.48;;;11.27;;
38972;SDS011;25333;50.762;4.470;2024-01-15T01:22:33;17.67;;;10.48;;
38972;SDS011;25333;50.762;4.470;2024-01-15T01:25:02;20.23;;;11.43;;
38972;SDS011;25333;50.762;4.470;2024-01-15T01:27:33;18.67;;;11.48;;
38972;SDS011;25333;50.762;4.470;2024-01-15T01:30:05;18.67;;;11.55;;
38972;SDS011;25333;50.762;4.470;2024-01-15T01:32:51;20.45;;;11.75;;
38972;SDS011;25333;50.762;4.470;2024-01-15T01:35:21;19.52;;;11.43;;
38972;SDS011;25333;50.762;4.470;2024-01-15T01:37:56;17.17;;;10.93;;
38972;SDS011;25333;50.762;4.470;2024-01-15T01:40:29;22.27;;;12.82;;
38972;SDS011;25333;50.762;4.470;2024-01-15T01:42:55;21.07;;;12.53;;
38972;SDS011;25333;50.762;4.470;2024-01-15T01:45:20;18.57;;;12.20;;
38972;SDS011;25333;50.762;4.470;2024-01-15T01:47:46;21.65;;;11.95;;
38972;SDS011;25333;50.762;4.470;2024-01-15T01:50:21;16.92;;;11.45;;
38972;SDS011;25333;50.762;4.470;2024-01-15T01:52:47;17.57;;;12.10;;
38972;SDS011;25333;50.762;4.470;2024-01-15T01:55:14;17.80;;;9.88;;
38972;SDS011;25333;50.762;4.470;2024-01-15T01:57:44;16.77;;;10.93;;
38972;SDS011;25333;50.762;4.470;2024-01-15T02:00:14;18.33;;;10.50;;
38972;SDS011;25333;50.762;4.470;2024-01-15T02:02:41;18.35;;;11.35;;
38972;SDS011;25333;50.762;4.470;2024-01-15T02:05:13;15.73;;;10.68;;
38972;SDS011;25333;50.762;4.470;2024-01-15T02:07:46;16.67;;;9.90;;
38972;SDS011;25333;50.762;4.470;2024-01-15T02:10:13;13.65;;;9.02;;
38972;SDS011;25333;50.762;4.470;2024-01-15T02:12:42;13.82;;;8.35;;
38972;SDS011;25333;50.762;4.470;2024-01-15T02:15:08;12.00;;;8.43;;
38972;SDS011;25333;50.762;4.470;2024-01-15T02:17:57;14.70;;;10.13;;
38972;SDS011;25333;50.762;4.470;2024-01-15T02:20:55;11.02;;;7.38;;
38972;SDS011;25333;50.762;4.470;2024-01-15T02:23:26;15.50;;;8.93;;
38972;SDS011;25333;50.762;4.470;2024-01-15T02:26:29;13.75;;;7.30;;
38972;SDS011;25333;50.762;4.470;2024-01-15T02:29:12;12.35;;;6.93;;
38972;SDS011;25333;50.762;4.470;2024-01-15T02:31:44;13.75;;;7.20;;
38972;SDS011;25333;50.762;4.470;2024-01-15T02:34:23;10.57;;;7.03;;
38972;SDS011;25333;50.762;4.470;2024-01-15T02:36:57;13.75;;;7.20;;
38972;SDS011;25333;50.762;4.470;2024-01-15T02:39:35;11.05;;;5.93;;
38972;SDS011;25333;50.762;4.470;2024-01-15T02:42:21;10.85;;;6.15;;
38972;SDS011;25333;50.762;4.470;2024-01-15T02:44:48;13.48;;;8.13;;
38972;SDS011;25333;50.762;4.470;2024-01-15T02:47:17;10.45;;;7.05;;
38972;SDS011;25333;50.762;4.470;2024-01-15T02:49:44;15.93;;;8.60;;
38972;SDS011;25333;50.762;4.470;2024-01-15T02:52:16;13.10;;;7.10;;
38972;SDS011;25333;50.762;4.470;2024-01-15T02:55:11;11.45;;;7.03;;
38972;SDS011;25333;50.762;4.470;2024-01-15T02:57:42;13.50;;;8.15;;
38972;SDS011;25333;50.762;4.470;2024-01-15T03:01:04;14.55;;;8.85;;
38972;SDS011;25333;50.762;4.470;2024-01-15T03:04:20;14.98;;;8.63;;
38972;SDS011;25333;50.762;4.470;2024-01-15T03:07:18;17.75;;;9.65;;
38972;SDS011;25333;50.762;4.470;2024-01-15T03:09:52;15.55;;;10.02;;
38972;SDS011;25333;50.762;4.470;2024-01-15T03:12:18;19.40;;;10.82;;
38972;SDS011;25333;50.762;4.470;2024-01-15T03:14:46;19.90;;;11.07;;
38972;SDS011;25333;50.762;4.470;2024-01-15T03:17:18;16.02;;;10.73;;
38972;SDS011;25333;50.762;4.470;2024-01-15T03:19:59;23.63;;;12.48;;
38972;SDS011;25333;50.762;4.470;2024-01-15T03:22:25;19.48;;;11.70;;
38972;SDS011;25333;50.762;4.470;2024-01-15T03:24:54;20.52;;;12.75;;
38972;SDS011;25333;50.762;4.470;2024-01-15T03:27:21;20.92;;;12.65;;
38972;SDS011;25333;50.762;4.470;2024-01-15T03:29:47;25.45;;;13.27;;
38972;SDS011;25333;50.762;4.470;2024-01-15T03:32:18;22.38;;;14.20;;
38972;SDS011;25333;50.762;4.470;2024-01-15T03:34:44;21.40;;;12.77;;
38972;SDS011;25333;50.762;4.470;2024-01-15T03:37:12;20.27;;;13.15;;
38972;SDS011;25333;50.762;4.470;2024-01-15T03:39:40;20.90;;;13.63;;
38972;SDS011;25333;50.762;4.470;2024-01-15T03:42:15;21.42;;;13.07;;
38972;SDS011;25333;50.762;4.470;2024-01-15T03:44:42;23.15;;;12.95;;
38972;SDS011;25333;50.762;4.470;2024-01-15T03:47:13;24.63;;;14.23;;
38972;SDS011;25333;50.762;4.470;2024-01-15T03:49:40;21.05;;;14.70;;
38972;SDS011;25333;50.762;4.470;2024-01-15T03:52:09;22.20;;;13.30;;
38972;SDS011;25333;50.762;4.470;2024-01-15T06:19:58;8.03;;;2.37;;
38972;SDS011;25333;50.762;4.470;2024-01-15T06:22:42;7.47;;;2.90;;
38972;SDS011;25333;50.762;4.470;2024-01-15T06:36:41;6.95;;;4.20;;
38972;SDS011;25333;50.762;4.470;2024-01-15T06:39:40;7.57;;;4.22;;
38972;SDS011;25333;50.762;4.470;2024-01-15T07:08:40;9.68;;;6.53;;
38972;SDS011;25333;50.762;4.470;2024-01-15T07:11:11;10.73;;;6.85;;
38972;SDS011;25333;50.762;4.470;2024-01-15T07:13:54;11.98;;;7.70;;
38972;SDS011;25333;50.762;4.470;2024-01-15T07:16:46;14.50;;;7.95;;
38972;SDS011;25333;50.762;4.470;2024-01-15T07:22:59;11.23;;;6.63;;
38972;SDS011;25333;50.762;4.470;2024-01-15T07:25:25;11.60;;;6.22;;
38972;SDS011;25333;50.762;4.470;2024-01-15T07:27:51;9.30;;;6.30;;
38972;SDS011;25333;50.762;4.470;2024-01-15T07:30:18;10.82;;;6.40;;
38972;SDS011;25333;50.762;4.470;2024-01-15T07:32:47;10.45;;;6.85;;
38972;SDS011;25333;50.762;4.470;2024-01-15T07:35:19;12.95;;;7.40;;
38972;SDS011;25333;50.762;4.470;2024-01-15T07:37:50;17.25;;;6.70;;
38972;SDS011;25333;50.762;4.470;2024-01-15T07:40:19;11.43;;;6.63;;
38972;SDS011;25333;50.762;4.470;2024-01-15T07:42:45;11.50;;;7.22;;
38972;SDS011;25333;50.762;4.470;2024-01-15T07:45:13;10.10;;;7.00;;
38972;SDS011;25333;50.762;4.470;2024-01-15T07:47:41;11.93;;;7.75;;
38972;SDS011;25333;50.762;4.470;2024-01-15T07:50:07;11.20;;;6.65;;
38972;SDS011;25333;50.762;4.470;2024-01-15T07:52:39;10.55;;;6.57;;
38972;SDS011;25333;50.762;4.470;2024-01-15T07:55:26;11.15;;;6.80;;
38972;SDS011;25333;50.762;4.470;2024-01-15T07:58:00;11.48;;;6.55;;
38972;SDS011;25333;50.762;4.470;2024-01-15T08:00:30;13.75;;;8.07;;
38972;SDS011;25333;50.762;4.470;2024-01-15T08:02:57;11.25;;;6.85;;
38972;SDS011;25333;50.762;4.470;2024-01-15T08:05:26;8.13;;;5.13;;
38972;SDS011;25333;50.762;4.470;2024-01-15T08:08:20;11.05;;;6.63;;
38972;SDS011;25333;50.762;4.470;2024-01-15T08:10:48;11.57;;;6.10;;
38972;SDS011;25333;50.762;4.470;2024-01-15T08:13:14;11.00;;;6.28;;
38972;SDS011;25333;50.762;4.470;2024-01-15T08:15:40;11.40;;;5.63;;
38972;SDS011;25333;50.762;4.470;2024-01-15T08:18:06;12.50;;;4.90;;
38972;SDS011;25333;50.762;4.470;2024-01-15T08:20:32;7.88;;;4.05;;
38972;SDS011;25333;50.762;4.470;2024-01-15T08:22:59;8.82;;;4.35;;
38972;SDS011;25333;50.762;4.470;2024-01-15T08:25:26;10.35;;;4.68;;
38972;SDS011;25333;50.762;4.470;2024-01-15T08:27:53;7.43;;;3.30;;
38972;SDS011;25333;50.762;4.470;2024-01-15T08:30:21;5.95;;;3.05;;
38972;SDS011;25333;50.762;4.470;2024-01-15T08:32:56;8.98;;;3.30;;
38972;SDS011;25333;50.762;4.470;2024-01-15T08:41:24;11.95;;;6.25;;
38972;SDS011;25333;50.762;4.470;2024-01-15T08:44:27;7.13;;;2.65;;
38972;SDS011;25333;50.762;4.470;2024-01-15T08:47:35;5.18;;;2.45;;
38972;SDS011;25333;50.762;4.470;2024-01-15T08:50:41;4.80;;;2.20;;
38972;SDS011;25333;50.762;4.470;2024-01-15T08:55:48;7.27;;;2.83;;
38972;SDS011;25333;50.762;4.470;2024-01-15T08:58:45;8.15;;;1.92;;
38972;SDS011;25333;50.762;4.470;2024-01-15T09:02:03;3.92;;;1.50;;
38972;SDS011;25333;50.762;4.470;2024-01-15T09:05:08;8.18;;;1.70;;
38972;SDS011;25333;50.762;4.470;2024-01-15T09:11:34;6.07;;;1.90;;
38972;SDS011;25333;50.762;4.470;2024-01-15T09:14:24;3.85;;;1.52;;
38972;SDS011;25333;50.762;4.470;2024-01-15T09:17:53;6.20;;;1.58;;
38972;SDS011;25333;50.762;4.470;2024-01-15T09:21:11;5.88;;;1.33;;
38972;SDS011;25333;50.762;4.470;2024-01-15T09:23:58;4.18;;;1.42;;
38972;SDS011;25333;50.762;4.470;2024-01-15T09:26:58;4.50;;;1.65;;
38972;SDS011;25333;50.762;4.470;2024-01-15T09:30:22;3.85;;;1.33;;
38972;SDS011;25333;50.762;4.470;2024-01-15T09:33:08;3.33;;;1.00;;
38972;SDS011;25333;50.762;4.470;2024-01-15T09:35:43;4.57;;;1.83;;
38972;SDS011;25333;50.762;4.470;2024-01-15T09:38:11;6.80;;;1.83;;
38972;SDS011;25333;50.762;4.470;2024-01-15T09:41:11;3.75;;;0.88;;
38972;SDS011;25333;50.762;4.470;2024-01-15T09:46:52;3.05;;;1.77;;
38972;SDS011;25333;50.762;4.470;2024-01-15T09:50:02;4.47;;;1.48;;
38972;SDS011;25333;50.762;4.470;2024-01-15T09:53:31;4.35;;;0.75;;
38972;SDS011;25333;50.762;4.470;2024-01-15T09:56:25;4.63;;;1.15;;
38972;SDS011;25333;50.762;4.470;2024-01-15T10:00:18;6.30;;;1.30;;
38972;SDS011;25333;50.762;4.470;2024-01-15T10:03:06;3.33;;;1.15;;
38972;SDS011;25333;50.762;4.470;2024-01-15T10:05:37;4.55;;;1.10;;
38972;SDS011;25333;50.762;4.470;2024-01-15T10:10:54;6.38;;;1.85;;
38972;SDS011;25333;50.762;4.470;2024-01-15T10:13:48;4.30;;;0.98;;
38972;SDS011;25333;50.762;4.470;2024-01-15T10:16:32;3.95;;;1.13;;
38972;SDS011;25333;50.762;4.470;2024-01-15T10:19:33;7.43;;;1.75;;
38972;SDS011;25333;50.762;4.470;2024-01-15T10:22:25;4.40;;;1.20;;
38972;SDS011;25333;50.762;4.470;2024-01-15T10:25:53;3.47;;;1.25;;
38972;SDS011;25333;50.762;4.470;2024-01-15T10:28:41;5.57;;;1.33;;
38972;SDS011;25333;50.762;4.470;2024-01-15T10:31:20;4.88;;;1.00;;
38972;SDS011;25333;50.762;4.470;2024-01-15T10:34:13;2.28;;;1.02;;
38972;SDS011;25333;50.762;4.470;2024-01-15T10:37:09;5.72;;;1.55;;
38972;SDS011;25333;50.762;4.470;2024-01-15T10:40:13;5.90;;;1.30;;
38972;SDS011;25333;50.762;4.470;2024-01-15T10:42:52;3.40;;;0.97;;
38972;SDS011;25333;50.762;4.470;2024-01-15T10:45:19;2.78;;;1.20;;
38972;SDS011;25333;50.762;4.470;2024-01-15T10:47:44;6.27;;;1.00;;
38972;SDS011;25333;50.762;4.470;2024-01-15T10:50:36;9.18;;;1.30;;
38972;SDS011;25333;50.762;4.470;2024-01-15T10:53:04;5.38;;;1.60;;
38972;SDS011;25333;50.762;4.470;2024-01-15T10:55:35;3.07;;;0.90;;
38972;SDS011;25333;50.762;4.470;2024-01-15T10:58:17;5.82;;;1.15;;
38972;SDS011;25333;50.762;4.470;2024-01-15T11:01:05;4.32;;;1.00;;
38972;SDS011;25333;50.762;4.470;2024-01-15T11:03:48;6.43;;;1.20;;
38972;SDS011;25333;50.762;4.470;2024-01-15T11:07:06;6.73;;;1.43;;
38972;SDS011;25333;50.762;4.470;2024-01-15T11:09:40;3.90;;;1.25;;
38972;SDS011;25333;50.762;4.470;2024-01-15T11:12:32;3.38;;;0.50;;
38972;SDS011;25333;50.762;4.470;2024-01-15T11:15:07;9.10;;;1.95;;
38972;SDS011;25333;50.762;4.470;2024-01-15T11:18:19;7.90;;;0.88;;
38972;SDS011;25333;50.762;4.470;2024-01-15T11:20:30;6.30;;;1.10;;
38972;SDS011;25333;50.762;4.470;2024-01-15T11:23:03;3.23;;;0.97;;
38972;SDS011;25333;50.762;4.470;2024-01-15T11:25:34;2.90;;;0.90;;
38972;SDS011;25333;50.762;4.470;2024-01-15T11:28:03;3.75;;;0.90;;
38972;SDS011;25333;50.762;4.470;2024-01-15T11:31:01;4.15;;;0.90;;
38972;SDS011;25333;50.762;4.470;2024-01-15T11:33:32;4.82;;;0.85;;
38972;SDS011;25333;50.762;4.470;2024-01-15T11:36:16;7.05;;;0.95;;
38972;SDS011;25333;50.762;4.470;2024-01-15T11:38:43;5.60;;;0.70;;
38972;SDS011;25333;50.762;4.470;2024-01-15T11:42:01;5.65;;;0.80;;
38972;SDS011;25333;50.762;4.470;2024-01-15T11:44:35;1.92;;;0.60;;
38972;SDS011;25333;50.762;4.470;2024-01-15T11:47:02;4.23;;;1.07;;
38972;SDS011;25333;50.762;4.470;2024-01-15T11:50:01;4.83;;;1.30;;
38972;SDS011;25333;50.762;4.470;2024-01-15T11:52:36;5.60;;;1.05;;
38972;SDS011;25333;50.762;4.470;2024-01-15T11:55:38;2.38;;;0.80;;
38972;SDS011;25333;50.762;4.470;2024-01-15T11:58:09;5.00;;;1.23;;
38972;SDS011;25333;50.762;4.470;2024-01-15T12:00:53;2.67;;;0.65;;
38972;SDS011;25333;50.762;4.470;2024-01-15T12:03:23;5.90;;;1.35;;
38972;SDS011;25333;50.762;4.470;2024-01-15T12:05:53;3.28;;;1.13;;
38972;SDS011;25333;50.762;4.470;2024-01-15T12:08:25;7.03;;;1.52;;
38972;SDS011;25333;50.762;4.470;2024-01-15T12:11:13;4.65;;;1.20;;
38972;SDS011;25333;50.762;4.470;2024-01-15T12:13:47;2.55;;;0.77;;
38972;SDS011;25333;50.762;4.470;2024-01-15T12:16:33;3.40;;;1.30;;
38972;SDS011;25333;50.762;4.470;2024-01-15T12:18:59;4.15;;;0.45;;
38972;SDS011;25333;50.762;4.470;2024-01-15T12:21:50;4.28;;;1.10;;
38972;SDS011;25333;50.762;4.470;2024-01-15T12:24:19;2.40;;;0.47;;
38972;SDS011;25333;50.762;4.470;2024-01-15T12:26:44;2.95;;;1.05;;
38972;SDS011;25333;50.762;4.470;2024-01-15T12:29:17;2.92;;;0.50;;
38972;SDS011;25333;50.762;4.470;2024-01-15T12:32:12;5.88;;;0.70;;
38972;SDS011;25333;50.762;4.470;2024-01-15T12:34:58;2.80;;;0.60;;
38972;SDS011;25333;50.762;4.470;2024-01-15T12:37:28;4.22;;;0.82;;
38972;SDS011;25333;50.762;4.470;2024-01-15T12:40:03;3.33;;;0.73;;
38972;SDS011;25333;50.762;4.470;2024-01-15T12:42:40;6.85;;;1.50;;
38972;SDS011;25333;50.762;4.470;2024-01-15T12:45:36;2.38;;;0.68;;
38972;SDS011;25333;50.762;4.470;2024-01-15T12:48:49;2.07;;;0.40;;
38972;SDS011;25333;50.762;4.470;2024-01-15T12:51:16;5.32;;;1.00;;
38972;SDS011;25333;50.762;4.470;2024-01-15T12:53:42;4.40;;;0.80;;
38972;SDS011;25333;50.762;4.470;2024-01-15T12:56:07;4.70;;;0.85;;
38972;SDS011;25333;50.762;4.470;2024-01-15T13:01:24;5.28;;;1.55;;
38972;SDS011;25333;50.762;4.470;2024-01-15T13:03:54;5.30;;;1.17;;
38972;SDS011;25333;50.762;4.470;2024-01-15T13:06:23;5.77;;;1.20;;
38972;SDS011;25333;50.762;4.470;2024-01-15T13:09:14;3.67;;;0.70;;
38972;SDS011;25333;50.762;4.470;2024-01-15T13:11:45;6.13;;;0.95;;
38972;SDS011;25333;50.762;4.470;2024-01-15T13:14:23;5.07;;;1.30;;
38972;SDS011;25333;50.762;4.470;2024-01-15T13:17:13;4.10;;;0.90;;
38972;SDS011;25333;50.762;4.470;2024-01-15T13:20:02;5.30;;;0.80;;
38972;SDS011;25333;50.762;4.470;2024-01-15T13:22:49;3.30;;;1.08;;
38972;SDS011;25333;50.762;4.470;2024-01-15T13:25:15;3.83;;;0.93;;
38972;SDS011;25333;50.762;4.470;2024-01-15T13:27:58;4.75;;;1.45;;
38972;SDS011;25333;50.762;4.470;2024-01-15T13:30:26;8.03;;;1.10;;
38972;SDS011;25333;50.762;4.470;2024-01-15T13:33:17;5.55;;;1.42;;
38972;SDS011;25333;50.762;4.470;2024-01-15T13:35:54;2.70;;;1.20;;
38972;SDS011;25333;50.762;4.470;2024-01-15T13:39:04;4.57;;;0.80;;
38972;SDS011;25333;50.762;4.470;2024-01-15T13:41:52;3.47;;;0.98;;
38972;SDS011;25333;50.762;4.470;2024-01-15T13:45:13;3.88;;;1.00;;
38972;SDS011;25333;50.762;4.470;2024-01-15T13:52:05;7.18;;;1.20;;
38972;SDS011;25333;50.762;4.470;2024-01-15T13:55:23;6.60;;;0.90;;
38972;SDS011;25333;50.762;4.470;2024-01-15T13:58:29;2.42;;;0.75;;
38972;SDS011;25333;50.762;4.470;2024-01-15T14:00:58;4.90;;;0.88;;
38972;SDS011;25333;50.762;4.470;2024-01-15T14:04:06;4.50;;;0.65;;
38972;SDS011;25333;50.762;4.470;2024-01-15T14:07:17;5.88;;;0.73;;
38972;SDS011;25333;50.762;4.470;2024-01-15T14:12:17;3.88;;;0.90;;
38972;SDS011;25333;50.762;4.470;2024-01-15T14:14:48;7.13;;;0.80;;
38972;SDS011;25333;50.762;4.470;2024-01-15T14:17:23;7.20;;;1.50;;
38972;SDS011;25333;50.762;4.470;2024-01-15T14:23:23;6.53;;;1.10;;
38972;SDS011;25333;50.762;4.470;2024-01-15T14:26:07;5.13;;;0.70;;
38972;SDS011;25333;50.762;4.470;2024-01-15T14:29:07;7.15;;;1.60;;
38972;SDS011;25333;50.762;4.470;2024-01-15T14:31:37;5.07;;;1.15;;
38972;SDS011;25333;50.762;4.470;2024-01-15T14:34:23;5.50;;;1.55;;
38972;SDS011;25333;50.762;4.470;2024-01-15T14:36:53;6.47;;;1.27;;
38972;SDS011;25333;50.762;4.470;2024-01-15T14:39:51;3.85;;;0.90;;
38972;SDS011;25333;50.762;4.470;2024-01-15T14:42:30;5.55;;;1.20;;
38972;SDS011;25333;50.762;4.470;2024-01-15T14:45:27;4.93;;;0.90;;
38972;SDS011;25333;50.762;4.470;2024-01-15T14:48:16;3.80;;;1.13;;
38972;SDS011;25333;50.762;4.470;2024-01-15T14:50:47;4.75;;;1.50;;
38972;SDS011;25333;50.762;4.470;2024-01-15T14:54:04;4.20;;;0.93;;
38972;SDS011;25333;50.762;4.470;2024-01-15T14:56:53;2.45;;;0.75;;
38972;SDS011;25333;50.762;4.470;2024-01-15T14:59:55;5.18;;;1.10;;
38972;SDS011;25333;50.762;4.470;2024-01-15T15:02:53;3.75;;;0.95;;
38972;SDS011;25333;50.762;4.470;2024-01-15T15:06:30;4.55;;;0.98;;
38972;SDS011;25333;50.762;4.470;2024-01-15T15:13:07;6.80;;;1.07;;
38972;SDS011;25333;50.762;4.470;2024-01-15T15:16:31;5.33;;;0.73;;
38972;SDS011;25333;50.762;4.470;2024-01-15T15:19:00;2.42;;;0.40;;
38972;SDS011;25333;50.762;4.470;2024-01-15T15:21:29;2.70;;;0.95;;
38972;SDS011;25333;50.762;4.470;2024-01-15T15:23:59;2.97;;;0.73;;
38972;SDS011;25333;50.762;4.470;2024-01-15T15:26:30;2.63;;;0.40;;
38972;SDS011;25333;50.762;4.470;2024-01-15T15:28:58;1.73;;;0.57;;
38972;SDS011;25333;50.762;4.470;2024-01-15T15:31:25;1.13;;;0.50;;
38972;SDS011;25333;50.762;4.470;2024-01-15T15:33:56;2.75;;;0.75;;
38972;SDS011;25333;50.762;4.470;2024-01-15T15:36:28;5.28;;;1.00;;
38972;SDS011;25333;50.762;4.470;2024-01-15T15:38:57;2.27;;;0.60;;
38972;SDS011;25333;50.762;4.470;2024-01-15T15:41:23;2.15;;;0.90;;
38972;SDS011;25333;50.762;4.470;2024-01-15T15:44:00;4.25;;;1.20;;
38972;SDS011;25333;50.762;4.470;2024-01-15T15:46:41;2.17;;;0.57;;
38972;SDS011;25333;50.762;4.470;2024-01-15T15:49:28;3.10;;;0.45;;
38972;SDS011;25333;50.762;4.470;2024-01-15T15:51:57;5.63;;;0.70;;
38972;SDS011;25333;50.762;4.470;2024-01-15T15:54:28;3.75;;;0.63;;
38972;SDS011;25333;50.762;4.470;2024-01-15T15:57:37;1.47;;;0.60;;
38972;SDS011;25333;50.762;4.470;2024-01-15T16:00:16;4.10;;;0.80;;
38972;SDS011;25333;50.762;4.470;2024-01-15T16:03:49;3.72;;;0.60;;
38972;SDS011;25333;50.762;4.470;2024-01-15T16:06:15;2.42;;;0.90;;
38972;SDS011;25333;50.762;4.470;2024-01-15T16:08:42;3.70;;;1.50;;
38972;SDS011;25333;50.762;4.470;2024-01-15T16:11:12;2.95;;;0.90;;
38972;SDS011;25333;50.762;4.470;2024-01-15T16:35:34;10.05;;;2.78;;
38972;SDS011;25333;50.762;4.470;2024-01-15T16:38:00;7.88;;;2.83;;
38972;SDS011;25333;50.762;4.470;2024-01-15T16:41:03;7.22;;;2.70;;
38972;SDS011;25333;50.762;4.470;2024-01-15T16:47:40;5.78;;;2.72;;
38972;SDS011;25333;50.762;4.470;2024-01-15T16:50:32;5.88;;;2.00;;
38972;SDS011;25333;50.762;4.470;2024-01-15T16:55:43;6.80;;;2.83;;
38972;SDS011;25333;50.762;4.470;2024-01-15T16:58:12;7.07;;;2.73;;
38972;SDS011;25333;50.762;4.470;2024-01-15T17:00:57;6.78;;;3.17;;
38972;SDS011;25333;50.762;4.470;2024-01-15T17:06:42;6.40;;;2.30;;
38972;SDS011;25333;50.762;4.470;2024-01-15T17:09:23;4.15;;;2.03;;
38972;SDS011;25333;50.762;4.470;2024-01-15T17:12:06;2.78;;;0.90;;
38972;SDS011;25333;50.762;4.470;2024-01-15T17:14:57;6.75;;;2.63;;
38972;SDS011;25333;50.762;4.470;2024-01-15T17:17:43;5.35;;;3.03;;
38972;SDS011;25333;50.762;4.470;2024-01-15T17:20:51;8.63;;;4.45;;
38972;SDS011;25333;50.762;4.470;2024-01-15T17:26:40;11.73;;;5.68;;
38972;SDS011;25333;50.762;4.470;2024-01-15T17:36:22;9.63;;;4.53;;
38972;SDS011;25333;50.762;4.470;2024-01-15T17:55:49;2.63;;;1.35;;
38972;SDS011;25333;50.762;4.470;2024-01-15T18:03:37;4.60;;;2.05;;
38972;SDS011;25333;50.762;4.470;2024-01-15T18:06:22;4.28;;;1.95;;
38972;SDS011;25333;50.762;4.470;2024-01-15T18:08:51;4.30;;;1.90;;
38972;SDS011;25333;50.762;4.470;2024-01-15T18:11:43;4.55;;;2.65;;
38972;SDS011;25333;50.762;4.470;2024-01-15T18:14:36;4.40;;;1.50;;
38972;SDS011;25333;50.762;4.470;2024-01-15T18:17:05;6.10;;;2.00;;
38972;SDS011;25333;50.762;4.470;2024-01-15T18:19:48;7.32;;;2.25;;
38972;SDS011;25333;50.762;4.470;2024-01-15T18:22:55;7.93;;;2.47;;
38972;SDS011;25333;50.762;4.470;2024-01-15T18:25:37;8.25;;;2.97;;
38972;SDS011;25333;50.762;4.470;2024-01-15T18:31:21;6.32;;;2.83;;
38972;SDS011;25333;50.762;4.470;2024-01-15T18:37:31;9.50;;;4.30;;
38972;SDS011;25333;50.762;4.470;2024-01-15T18:39:57;12.27;;;5.15;;
38972;SDS011;25333;50.762;4.470;2024-01-15T18:42:28;11.48;;;4.90;;
38972;SDS011;25333;50.762;4.470;2024-01-15T18:45:10;8.38;;;4.35;;
38972;SDS011;25333;50.762;4.470;2024-01-15T18:48:33;6.82;;;3.42;;
38972;SDS011;25333;50.762;4.470;2024-01-15T18:51:47;12.10;;;4.20;;
38972;SDS011;25333;50.762;4.470;2024-01-15T18:54:31;10.43;;;3.47;;
38972;SDS011;25333;50.762;4.470;2024-01-15T18:57:00;10.35;;;4.32;;
38972;SDS011;25333;50.762;4.470;2024-01-15T18:59:29;10.43;;;3.20;;
38972;SDS011;25333;50.762;4.470;2024-01-15T19:02:14;7.60;;;2.72;;
38972;SDS011;25333;50.762;4.470;2024-01-15T19:05:17;9.85;;;3.30;;
38972;SDS011;25333;50.762;4.470;2024-01-15T19:11:12;9.98;;;3.53;;
38972;SDS011;25333;50.762;4.470;2024-01-15T19:14:18;5.63;;;2.72;;
38972;SDS011;25333;50.762;4.470;2024-01-15T19:17:12;8.05;;;3.17;;
38972;SDS011;25333;50.762;4.470;2024-01-15T19:23:40;7.95;;;3.15;;
38972;SDS011;25333;50.762;4.470;2024-01-15T19:26:26;5.18;;;2.50;;
38972;SDS011;25333;50.762;4.470;2024-01-15T19:35:23;9.63;;;4.68;;
38972;SDS011;25333;50.762;4.470;2024-01-15T19:37:50;6.55;;;3.20;;
38972;SDS011;25333;50.762;4.470;2024-01-15T19:40:15;10.65;;;4.78;;
38972;SDS011;25333;50.762;4.470;2024-01-15T19:43:36;10.68;;;3.78;;
38972;SDS011;25333;50.762;4.470;2024-01-15T19:46:42;7.40;;;3.63;;
38972;SDS011;25333;50.762;4.470;2024-01-15T19:49:55;9.70;;;4.38;;
38972;SDS011;25333;50.762;4.470;2024-01-15T19:52:59;6.75;;;3.92;;
38972;SDS011;25333;50.762;4.470;2024-01-15T19:55:55;10.30;;;4.47;;
38972;SDS011;25333;50.762;4.470;2024-01-15T20:02:02;7.72;;;4.10;;
38972;SDS011;25333;50.762;4.470;2024-01-15T20:04:48;9.88;;;4.22;;
38972;SDS011;25333;50.762;4.470;2024-01-15T20:17:30;9.13;;;4.03;;
38972;SDS011;25333;50.762;4.470;2024-01-15T20:20:53;6.05;;;3.08;;
38972;SDS011;25333;50.762;4.470;2024-01-15T20:27:38;8.02;;;3.75;;
38972;SDS011;25333;50.762;4.470;2024-01-15T20:41:02;11.13;;;4.07;;
38972;SDS011;25333;50.762;4.470;2024-01-15T21:12:34;8.77;;;4.57;;
38972;SDS011;25333;50.762;4.470;2024-01-15T21:16:03;6.33;;;3.77;;
38972;SDS011;25333;50.762;4.470;2024-01-15T21:19:08;9.23;;;3.77;;
38972;SDS011;25333;50.762;4.470;2024-01-15T21:21:38;7.25;;;3.75;;
38972;SDS011;25333;50.762;4.470;2024-01-15T21:25:03;9.48;;;3.40;;
38972;SDS011;25333;50.762;4.470;2024-01-15T21:27:48;9.23;;;3.95;;
38972;SDS011;25333;50.762;4.470;2024-01-15T21:30:49;9.18;;;3.80;;
38972;SDS011;25333;50.762;4.470;2024-01-15T21:36:33;7.78;;;2.78;;
38972;SDS011;25333;50.762;4.470;2024-01-15T21:46:08;8.02;;;3.38;;
38972;SDS011;25333;50.762;4.470;2024-01-15T21:49:34;15.68;;;4.15;;
38972;SDS011;25333;50.762;4.470;2024-01-15T21:52:06;9.68;;;3.53;;
38972;SDS011;25333;50.762;4.470;2024-01-15T21:54:56;5.17;;;2.97;;
38972;SDS011;25333;50.762;4.470;2024-01-15T21:58:08;8.23;;;3.42;;
38972;SDS011;25333;50.762;4.470;2024-01-15T22:01:22;6.78;;;3.33;;
38972;SDS011;25333;50.762;4.470;2024-01-15T22:04:55;9.98;;;3.42;;
38972;SDS011;25333;50.762;4.470;2024-01-15T22:08:20;7.88;;;3.60;;
38972;SDS011;25333;50.762;4.470;2024-01-15T22:11:09;9.85;;;4.50;;
38972;SDS011;25333;50.762;4.470;2024-01-15T22:14:13;9.50;;;4.15;;
38972;SDS011;25333;50.762;4.470;2024-01-15T22:20:32;9.35;;;4.75;;
38972;SDS011;25333;50.762;4.470;2024-01-15T22:26:45;11.68;;;4.20;;
38972;SDS011;25333;50.762;4.470;2024-01-15T22:29:33;9.63;;;4.97;;
38972;SDS011;25333;50.762;4.470;2024-01-15T22:35:45;9.93;;;4.82;;
38972;SDS011;25333;50.762;4.470;2024-01-15T22:42:18;10.20;;;5.10;;